sensor_id;sensor_type;location;lat;lon;timestamp;pressure;altitude;pressure_sealevel;temperature
60936;BMP280;46804;51.786;19.520;2023-08-01T00:00:57;158756.53;;;17.76
60936;BMP280;46804;51.786;19.520;2023-08-01T00:05:02;158739.75;;;17.70
60936;BMP280;46804;51.786;19.520;2023-08-01T00:09:02;158733.31;;;17.67
60936;BMP280;46804;51.786;19.520;2023-08-01T00:13:03;158730.75;;;17.67
60936;BMP280;46804;51.786;19.520;2023-08-01T00:17:03;158733.31;;;17.67
60936;BMP280;46804;51.786;19.520;2023-08-01T00:21:04;158728.13;;;17.66
60936;BMP280;46804;51.786;19.520;2023-08-01T00:25:05;158739.75;;;17.70
60936;BMP280;46804;51.786;19.520;2023-08-01T00:29:07;158743.63;;;17.71
60936;BMP280;46804;51.786;19.520;2023-08-01T00:33:08;158756.53;;;17.76
60936;BMP280;46804;51.786;19.520;2023-08-01T00:37:08;158762.97;;;17.79
60936;BMP280;46804;51.786;19.520;2023-08-01T00:41:09;158765.56;;;17.80
60936;BMP280;46804;51.786;19.520;2023-08-01T00:45:10;158772.00;;;17.82
60936;BMP280;46804;51.786;19.520;2023-08-01T00:49:11;158772.00;;;17.82
60936;BMP280;46804;51.786;19.520;2023-08-01T00:53:12;158773.28;;;17.83
60936;BMP280;46804;51.786;19.520;2023-08-01T00:57:12;158784.91;;;17.87
60936;BMP280;46804;51.786;19.520;2023-08-01T01:01:13;158790.06;;;17.89
60936;BMP280;46804;51.786;19.520;2023-08-01T01:05:14;158801.69;;;17.94
60936;BMP280;46804;51.786;19.520;2023-08-01T01:09:16;158810.72;;;17.97
60936;BMP280;46804;51.786;19.520;2023-08-01T01:13:16;158812.00;;;17.98
60936;BMP280;46804;51.786;19.520;2023-08-01T01:17:17;158808.13;;;17.96
60936;BMP280;46804;51.786;19.520;2023-08-01T01:21:18;158815.88;;;17.99
60936;BMP280;46804;51.786;19.520;2023-08-01T01:25:36;158808.13;;;17.96
60936;BMP280;46804;51.786;19.520;2023-08-01T01:29:39;158801.69;;;17.94
60936;BMP280;46804;51.786;19.520;2023-08-01T01:33:40;158795.22;;;17.91
60936;BMP280;46804;51.786;19.520;2023-08-01T01:37:41;158791.34;;;17.90
60936;BMP280;46804;51.786;19.520;2023-08-01T01:41:42;158797.84;;;17.92
60936;BMP280;46804;51.786;19.520;2023-08-01T01:45:42;158805.56;;;17.95
60936;BMP280;46804;51.786;19.520;2023-08-01T01:49:43;158800.41;;;17.93
60936;BMP280;46804;51.786;19.520;2023-08-01T01:53:44;158809.44;;;17.97
60936;BMP280;46804;51.786;19.520;2023-08-01T01:57:44;158810.72;;;17.97
60936;BMP280;46804;51.786;19.520;2023-08-01T02:01:45;158815.88;;;17.99
60936;BMP280;46804;51.786;19.520;2023-08-01T02:05:45;158828.78;;;18.04
60936;BMP280;46804;51.786;19.520;2023-08-01T02:09:46;158834.00;;;18.06
60936;BMP280;46804;51.786;19.520;2023-08-01T02:13:47;158839.16;;;18.08
60936;BMP280;46804;51.786;19.520;2023-08-01T02:17:47;158845.59;;;18.10
60936;BMP280;46804;51.786;19.520;2023-08-01T02:21:48;158844.31;;;18.10
60936;BMP280;46804;51.786;19.520;2023-08-01T02:25:48;158850.78;;;18.12
60936;BMP280;46804;51.786;19.520;2023-08-01T02:29:49;158843.00;;;18.09
60936;BMP280;46804;51.786;19.520;2023-08-01T02:33:51;158832.72;;;18.05
60936;BMP280;46804;51.786;19.520;2023-08-01T02:37:51;158822.34;;;18.02
60936;BMP280;46804;51.786;19.520;2023-08-01T02:41:52;158797.84;;;17.92
60936;BMP280;46804;51.786;19.520;2023-08-01T02:45:52;158790.06;;;17.89
60936;BMP280;46804;51.786;19.520;2023-08-01T02:49:53;158786.19;;;17.88
60936;BMP280;46804;51.786;19.520;2023-08-01T02:53:54;158764.28;;;17.79
60936;BMP280;46804;51.786;19.520;2023-08-01T02:57:54;158748.81;;;17.73
60936;BMP280;46804;51.786;19.520;2023-08-01T03:01:55;158722.97;;;17.64
60936;BMP280;46804;51.786;19.520;2023-08-01T03:05:55;158719.16;;;17.62
60936;BMP280;46804;51.786;19.520;2023-08-01T03:09:56;158681.72;;;17.48
60936;BMP280;46804;51.786;19.520;2023-08-01T03:13:57;158672.72;;;17.44
60936;BMP280;46804;51.786;19.520;2023-08-01T03:17:57;158645.63;;;17.34
60936;BMP280;46804;51.786;19.520;2023-08-01T03:21:58;158613.38;;;17.22
60936;BMP280;46804;51.786;19.520;2023-08-01T03:25:58;158599.22;;;17.16
60936;BMP280;46804;51.786;19.520;2023-08-01T03:29:59;158594.06;;;17.14
60936;BMP280;46804;51.786;19.520;2023-08-01T03:34:00;158584.94;;;17.11
60936;BMP280;46804;51.786;19.520;2023-08-01T03:38:00;158586.22;;;17.11
60936;BMP280;46804;51.786;19.520;2023-08-01T03:42:01;158583.69;;;17.10
60936;BMP280;46804;51.786;19.520;2023-08-01T03:46:02;158599.22;;;17.16
60936;BMP280;46804;51.786;19.520;2023-08-01T03:50:03;158613.38;;;17.22
60936;BMP280;46804;51.786;19.520;2023-08-01T03:54:03;158623.69;;;17.26
60936;BMP280;46804;51.786;19.520;2023-08-01T03:58:04;158627.59;;;17.27
60936;BMP280;46804;51.786;19.520;2023-08-01T04:02:04;158627.59;;;17.27
60936;BMP280;46804;51.786;19.520;2023-08-01T04:06:05;158639.19;;;17.32
60936;BMP280;46804;51.786;19.520;2023-08-01T04:10:06;158635.31;;;17.30
60936;BMP280;46804;51.786;19.520;2023-08-01T04:14:06;158658.50;;;17.39
60936;BMP280;46804;51.786;19.520;2023-08-01T04:18:07;158664.94;;;17.41
60936;BMP280;46804;51.786;19.520;2023-08-01T04:22:08;158683.00;;;17.48
60936;BMP280;46804;51.786;19.520;2023-08-01T04:26:10;158704.94;;;17.57
60936;BMP280;46804;51.786;19.520;2023-08-01T04:30:11;158721.69;;;17.63
60936;BMP280;46804;51.786;19.520;2023-08-01T04:34:12;158743.63;;;17.71
60936;BMP280;46804;51.786;19.520;2023-08-01T04:38:13;158757.78;;;17.77
60936;BMP280;46804;51.786;19.520;2023-08-01T04:42:13;158768.13;;;17.81
60936;BMP280;46804;51.786;19.520;2023-08-01T04:46:14;158782.34;;;17.86
60936;BMP280;46804;51.786;19.520;2023-08-01T04:50:15;158796.50;;;17.92
60936;BMP280;46804;51.786;19.520;2023-08-01T04:54:15;158815.88;;;17.99
60936;BMP280;46804;51.786;19.520;2023-08-01T04:58:16;158846.88;;;18.11
60936;BMP280;46804;51.786;19.520;2023-08-01T05:02:16;158888.16;;;18.27
60936;BMP280;46804;51.786;19.520;2023-08-01T05:06:17;158921.72;;;18.39
60936;BMP280;46804;51.786;19.520;2023-08-01T05:10:17;158951.38;;;18.51
60936;BMP280;46804;51.786;19.520;2023-08-01T05:14:18;158987.56;;;18.65
60936;BMP280;46804;51.786;19.520;2023-08-01T05:18:19;159014.69;;;18.75
60936;BMP280;46804;51.786;19.520;2023-08-01T05:22:20;159041.75;;;18.85
60936;BMP280;46804;51.786;19.520;2023-08-01T05:26:20;159067.63;;;18.95
60936;BMP280;46804;51.786;19.520;2023-08-01T05:30:21;159084.41;;;19.02
60936;BMP280;46804;51.786;19.520;2023-08-01T05:34:22;159093.44;;;19.05
60936;BMP280;46804;51.786;19.520;2023-08-01T05:38:22;159085.69;;;19.02
60936;BMP280;46804;51.786;19.520;2023-08-01T05:42:23;159094.75;;;19.06
60936;BMP280;46804;51.786;19.520;2023-08-01T05:46:23;159101.22;;;19.08
60936;BMP280;46804;51.786;19.520;2023-08-01T05:50:24;159148.97;;;19.26
60936;BMP280;46804;51.786;19.520;2023-08-01T05:54:25;159209.69;;;19.49
60936;BMP280;46804;51.786;19.520;2023-08-01T05:58:25;159249.72;;;19.65
60936;BMP280;46804;51.786;19.520;2023-08-01T06:02:26;159291.09;;;19.80
60936;BMP280;46804;51.786;19.520;2023-08-01T06:06:27;159325.94;;;19.94
60936;BMP280;46804;51.786;19.520;2023-08-01T06:10:28;159346.63;;;20.02
60936;BMP280;46804;51.786;19.520;2023-08-01T06:14:28;159376.34;;;20.13
60936;BMP280;46804;51.786;19.520;2023-08-01T06:18:29;159389.25;;;20.18
60936;BMP280;46804;51.786;19.520;2023-08-01T06:22:30;159420.28;;;20.30
60936;BMP280;46804;51.786;19.520;2023-08-01T06:26:31;159470.69;;;20.49
60936;BMP280;46804;51.786;19.520;2023-08-01T06:30:31;159597.38;;;20.97
60936;BMP280;46804;51.786;19.520;2023-08-01T06:34:32;159663.28;;;21.22
60936;BMP280;46804;51.786;19.520;2023-08-01T06:38:33;159614.19;;;21.04
60936;BMP280;46804;51.786;19.520;2023-08-01T06:42:33;159633.56;;;21.11
60936;BMP280;46804;51.786;19.520;2023-08-01T06:46:34;159722.84;;;21.45
60936;BMP280;46804;51.786;19.520;2023-08-01T06:50:35;159724.13;;;21.46
60936;BMP280;46804;51.786;19.520;2023-08-01T06:54:36;159875.41;;;22.03
60936;BMP280;46804;51.786;19.520;2023-08-01T06:58:36;159832.75;;;21.87
60936;BMP280;46804;51.786;19.520;2023-08-01T07:02:37;159821.13;;;21.82
60936;BMP280;46804;51.786;19.520;2023-08-01T07:06:38;159852.16;;;21.94
60936;BMP280;46804;51.786;19.520;2023-08-01T07:10:39;159906.53;;;22.15
60936;BMP280;46804;51.786;19.520;2023-08-01T07:14:39;159871.56;;;22.02
60936;BMP280;46804;51.786;19.520;2023-08-01T07:18:40;159757.75;;;21.58
60936;BMP280;46804;51.786;19.520;2023-08-01T07:22:41;159815.94;;;21.80
60936;BMP280;46804;51.786;19.520;2023-08-01T07:26:42;159844.41;;;21.91
60936;BMP280;46804;51.786;19.520;2023-08-01T07:30:42;159893.56;;;22.10
60936;BMP280;46804;51.786;19.520;2023-08-01T07:34:43;159867.69;;;22.00
60936;BMP280;46804;51.786;19.520;2023-08-01T07:38:43;159887.13;;;22.08
60936;BMP280;46804;51.786;19.520;2023-08-01T07:42:44;159813.38;;;21.80
60936;BMP280;46804;51.786;19.520;2023-08-01T07:46:46;159761.66;;;21.60
60936;BMP280;46804;51.786;19.520;2023-08-01T07:50:47;159739.66;;;21.51
60936;BMP280;46804;51.786;19.520;2023-08-01T07:54:47;159748.69;;;21.55
60936;BMP280;46804;51.786;19.520;2023-08-01T07:58:48;159703.44;;;21.38
60936;BMP280;46804;51.786;19.520;2023-08-01T08:02:49;159698.19;;;21.36
60936;BMP280;46804;51.786;19.520;2023-08-01T08:06:49;159651.66;;;21.18
60936;BMP280;46804;51.786;19.520;2023-08-01T08:10:50;159660.72;;;21.21
60936;BMP280;46804;51.786;19.520;2023-08-01T08:14:51;159634.84;;;21.11
60936;BMP280;46804;51.786;19.520;2023-08-01T08:18:51;159565.06;;;20.85
60936;BMP280;46804;51.786;19.520;2023-08-01T08:22:52;159515.91;;;20.66
60936;BMP280;46804;51.786;19.520;2023-08-01T08:26:52;159534.06;;;20.73
60936;BMP280;46804;51.786;19.520;2023-08-01T08:30:53;159590.94;;;20.95
60936;BMP280;46804;51.786;19.520;2023-08-01T08:34:53;159534.06;;;20.73
60936;BMP280;46804;51.786;19.520;2023-08-01T08:38:54;159420.28;;;20.30
60936;BMP280;46804;51.786;19.520;2023-08-01T08:42:55;159473.25;;;20.50
60936;BMP280;46804;51.786;19.520;2023-08-01T08:46:57;159453.88;;;20.42
60936;BMP280;46804;51.786;19.520;2023-08-01T08:51:01;159407.31;;;20.25
60936;BMP280;46804;51.786;19.520;2023-08-01T08:55:03;159387.97;;;20.17
60936;BMP280;46804;51.786;19.520;2023-08-01T08:59:04;159389.25;;;20.18
60936;BMP280;46804;51.786;19.520;2023-08-01T09:03:05;159313.03;;;19.89
60936;BMP280;46804;51.786;19.520;2023-08-01T09:07:07;159275.50;;;19.74
60936;BMP280;46804;51.786;19.520;2023-08-01T09:11:08;159292.34;;;19.81
60936;BMP280;46804;51.786;19.520;2023-08-01T09:15:09;159212.22;;;19.50
60936;BMP280;46804;51.786;19.520;2023-08-01T09:19:10;159209.69;;;19.49
60936;BMP280;46804;51.786;19.520;2023-08-01T09:23:13;159229.03;;;19.57
60936;BMP280;46804;51.786;19.520;2023-08-01T09:27:14;159207.06;;;19.48
60936;BMP280;46804;51.786;19.520;2023-08-01T09:31:15;159210.97;;;19.50
60936;BMP280;46804;51.786;19.520;2023-08-01T09:35:26;159260.06;;;19.69
60936;BMP280;46804;51.786;19.520;2023-08-01T09:39:27;159260.06;;;19.69
60936;BMP280;46804;51.786;19.520;2023-08-01T09:43:34;159254.88;;;19.67
60936;BMP280;46804;51.786;19.520;2023-08-01T09:47:36;159293.69;;;19.81
60936;BMP280;46804;51.786;19.520;2023-08-01T09:51:49;159318.22;;;19.91
60936;BMP280;46804;51.786;19.520;2023-08-01T09:55:50;159316.94;;;19.90
60936;BMP280;46804;51.786;19.520;2023-08-01T09:59:51;159384.06;;;20.16
60936;BMP280;46804;51.786;19.520;2023-08-01T10:03:53;159452.56;;;20.42
60936;BMP280;46804;51.786;19.520;2023-08-01T10:07:53;159579.31;;;20.90
60936;BMP280;46804;51.786;19.520;2023-08-01T10:11:56;159611.59;;;21.03
60936;BMP280;46804;51.786;19.520;2023-08-01T10:15:57;159638.75;;;21.13
60936;BMP280;46804;51.786;19.520;2023-08-01T10:19:58;159640.03;;;21.13
60936;BMP280;46804;51.786;19.520;2023-08-01T10:23:59;159662.00;;;21.22
60936;BMP280;46804;51.786;19.520;2023-08-01T10:28:01;159725.41;;;21.46
60936;BMP280;46804;51.786;19.520;2023-08-01T10:32:02;159845.69;;;21.92
60936;BMP280;46804;51.786;19.520;2023-08-01T10:36:12;159905.25;;;22.15
60936;BMP280;46804;51.786;19.520;2023-08-01T10:40:13;159955.72;;;22.34
60936;BMP280;46804;51.786;19.520;2023-08-01T10:44:14;159984.13;;;22.45
60936;BMP280;46804;51.786;19.520;2023-08-01T10:48:15;160063.09;;;22.75
60936;BMP280;46804;51.786;19.520;2023-08-01T10:56:19;159991.94;;;22.48
60936;BMP280;46804;51.786;19.520;2023-08-01T11:00:20;159982.84;;;22.44
60936;BMP280;46804;51.786;19.520;2023-08-01T11:04:21;160003.59;;;22.52
60936;BMP280;46804;51.786;19.520;2023-08-01T11:08:22;160012.59;;;22.55
60936;BMP280;46804;51.786;19.520;2023-08-01T11:12:22;160035.94;;;22.64
60936;BMP280;46804;51.786;19.520;2023-08-01T11:16:23;160086.38;;;22.83
60936;BMP280;46804;51.786;19.520;2023-08-01T11:20:24;160096.78;;;22.87
60936;BMP280;46804;51.786;19.520;2023-08-01T11:24:25;160089.03;;;22.84
60936;BMP280;46804;51.786;19.520;2023-08-01T11:28:25;160061.81;;;22.74
60936;BMP280;46804;51.786;19.520;2023-08-01T11:32:33;160035.94;;;22.64
60936;BMP280;46804;51.786;19.520;2023-08-01T11:36:35;159951.84;;;22.32
60936;BMP280;46804;51.786;19.520;2023-08-01T11:40:36;159959.56;;;22.35
60936;BMP280;46804;51.786;19.520;2023-08-01T11:44:37;159979.00;;;22.43
60936;BMP280;46804;51.786;19.520;2023-08-01T11:48:38;160051.44;;;22.70
60936;BMP280;46804;51.786;19.520;2023-08-01T11:52:39;160043.69;;;22.67
60936;BMP280;46804;51.786;19.520;2023-08-01T11:56:40;160073.44;;;22.79
60936;BMP280;46804;51.786;19.520;2023-08-01T12:00:41;160089.03;;;22.84
60936;BMP280;46804;51.786;19.520;2023-08-01T12:04:42;160043.69;;;22.67
60936;BMP280;46804;51.786;19.520;2023-08-01T12:08:47;160003.59;;;22.52
60936;BMP280;46804;51.786;19.520;2023-08-01T12:12:48;160059.25;;;22.73
60936;BMP280;46804;51.786;19.520;2023-08-01T12:16:48;160013.94;;;22.56
60936;BMP280;46804;51.786;19.520;2023-08-01T12:20:49;159976.41;;;22.42
60936;BMP280;46804;51.786;19.520;2023-08-01T12:24:50;159975.13;;;22.41
60936;BMP280;46804;51.786;19.520;2023-08-01T12:28:50;159932.38;;;22.25
60936;BMP280;46804;51.786;19.520;2023-08-01T12:32:51;159924.66;;;22.22
60936;BMP280;46804;51.786;19.520;2023-08-01T12:36:51;159878.03;;;22.04
60936;BMP280;46804;51.786;19.520;2023-08-01T12:40:52;159872.84;;;22.02
60936;BMP280;46804;51.786;19.520;2023-08-01T12:44:52;159868.97;;;22.01
60936;BMP280;46804;51.786;19.520;2023-08-01T12:48:53;159844.41;;;21.91
60936;BMP280;46804;51.786;19.520;2023-08-01T12:52:53;159835.31;;;21.88
60936;BMP280;46804;51.786;19.520;2023-08-01T12:56:54;159784.94;;;21.69
60936;BMP280;46804;51.786;19.520;2023-08-01T13:00:55;159721.56;;;21.45
60936;BMP280;46804;51.786;19.520;2023-08-01T13:04:56;159733.22;;;21.49
60936;BMP280;46804;51.786;19.520;2023-08-01T13:08:56;159818.50;;;21.81
60936;BMP280;46804;51.786;19.520;2023-08-01T13:12:57;159790.09;;;21.71
60936;BMP280;46804;51.786;19.520;2023-08-01T13:16:58;159721.56;;;21.45
60936;BMP280;46804;51.786;19.520;2023-08-01T13:21:00;159743.50;;;21.53
60936;BMP280;46804;51.786;19.520;2023-08-01T13:25:00;159690.47;;;21.33
60936;BMP280;46804;51.786;19.520;2023-08-01T13:29:03;159684.00;;;21.30
60936;BMP280;46804;51.786;19.520;2023-08-01T13:33:03;159700.88;;;21.37
60936;BMP280;46804;51.786;19.520;2023-08-01T13:37:04;159665.91;;;21.23
60936;BMP280;46804;51.786;19.520;2023-08-01T13:41:05;159729.31;;;21.47
60936;BMP280;46804;51.786;19.520;2023-08-01T13:45:05;159740.94;;;21.52
60936;BMP280;46804;51.786;19.520;2023-08-01T13:49:06;159757.75;;;21.58
60936;BMP280;46804;51.786;19.520;2023-08-01T13:53:07;159752.59;;;21.56
60936;BMP280;46804;51.786;19.520;2023-08-01T13:57:10;159746.13;;;21.54
60936;BMP280;46804;51.786;19.520;2023-08-01T14:01:11;159755.16;;;21.57
60936;BMP280;46804;51.786;19.520;2023-08-01T14:05:12;159721.56;;;21.45
60936;BMP280;46804;51.786;19.520;2023-08-01T14:09:12;159677.53;;;21.28
60936;BMP280;46804;51.786;19.520;2023-08-01T14:13:13;159652.94;;;21.18
60936;BMP280;46804;51.786;19.520;2023-08-01T14:17:14;159691.75;;;21.33
60936;BMP280;46804;51.786;19.520;2023-08-01T14:21:14;159721.56;;;21.45
60936;BMP280;46804;51.786;19.520;2023-08-01T14:25:15;159728.03;;;21.47
60936;BMP280;46804;51.786;19.520;2023-08-01T14:29:16;159693.06;;;21.34
60936;BMP280;46804;51.786;19.520;2023-08-01T14:33:19;159690.47;;;21.33
60936;BMP280;46804;51.786;19.520;2023-08-01T14:37:21;159665.91;;;21.23
60936;BMP280;46804;51.786;19.520;2023-08-01T14:41:24;159621.94;;;21.07
60936;BMP280;46804;51.786;19.520;2023-08-01T14:45:25;159592.22;;;20.95
60936;BMP280;46804;51.786;19.520;2023-08-01T14:49:25;159549.53;;;20.79
60936;BMP280;46804;51.786;19.520;2023-08-01T14:53:29;159518.53;;;20.67
60936;BMP280;46804;51.786;19.520;2023-08-01T14:57:30;159504.28;;;20.62
60936;BMP280;46804;51.786;19.520;2023-08-01T15:01:30;159515.91;;;20.66
60936;BMP280;46804;51.786;19.520;2023-08-01T15:05:31;159562.50;;;20.84
60936;BMP280;46804;51.786;19.520;2023-08-01T15:09:31;159562.50;;;20.84
60936;BMP280;46804;51.786;19.520;2023-08-01T15:13:32;159572.78;;;20.88
60936;BMP280;46804;51.786;19.520;2023-08-01T15:17:33;159571.50;;;20.87
60936;BMP280;46804;51.786;19.520;2023-08-01T15:21:33;159589.59;;;20.94
60936;BMP280;46804;51.786;19.520;2023-08-01T15:25:34;159614.19;;;21.04
60936;BMP280;46804;51.786;19.520;2023-08-01T15:29:35;159718.97;;;21.44
60936;BMP280;46804;51.786;19.520;2023-08-01T15:33:36;159782.31;;;21.68
60936;BMP280;46804;51.786;19.520;2023-08-01T15:37:37;159747.41;;;21.54
60936;BMP280;46804;51.786;19.520;2023-08-01T15:41:39;159725.41;;;21.46
60936;BMP280;46804;51.786;19.520;2023-08-01T15:45:39;159695.63;;;21.35
60936;BMP280;46804;51.786;19.520;2023-08-01T15:49:40;159671.09;;;21.25
60936;BMP280;46804;51.786;19.520;2023-08-01T15:53:40;159676.25;;;21.27
60936;BMP280;46804;51.786;19.520;2023-08-01T15:57:41;159673.66;;;21.26
60936;BMP280;46804;51.786;19.520;2023-08-01T16:01:43;159658.13;;;21.20
60936;BMP280;46804;51.786;19.520;2023-08-01T16:05:44;159632.28;;;21.11
60936;BMP280;46804;51.786;19.520;2023-08-01T16:09:44;159624.56;;;21.08
60936;BMP280;46804;51.786;19.520;2023-08-01T16:13:45;159598.66;;;20.98
60936;BMP280;46804;51.786;19.520;2023-08-01T16:17:46;159575.41;;;20.89
60936;BMP280;46804;51.786;19.520;2023-08-01T16:21:46;159559.88;;;20.83
60936;BMP280;46804;51.786;19.520;2023-08-01T16:25:47;159587.03;;;20.93
60936;BMP280;46804;51.786;19.520;2023-08-01T16:29:47;159568.94;;;20.86
60936;BMP280;46804;51.786;19.520;2023-08-01T16:33:48;159557.31;;;20.82
60936;BMP280;46804;51.786;19.520;2023-08-01T16:37:48;159544.38;;;20.77
60936;BMP280;46804;51.786;19.520;2023-08-01T16:41:49;159534.06;;;20.73
60936;BMP280;46804;51.786;19.520;2023-08-01T16:45:50;159521.09;;;20.68
60936;BMP280;46804;51.786;19.520;2023-08-01T16:49:54;159518.53;;;20.67
60936;BMP280;46804;51.786;19.520;2023-08-01T16:53:55;159493.94;;;20.58
60936;BMP280;46804;51.786;19.520;2023-08-01T16:57:56;159503.00;;;20.61
60936;BMP280;46804;51.786;19.520;2023-08-01T17:01:57;159487.44;;;20.55
60936;BMP280;46804;51.786;19.520;2023-08-01T17:05:58;159486.16;;;20.55
60936;BMP280;46804;51.786;19.520;2023-08-01T17:10:00;159487.44;;;20.55
60936;BMP280;46804;51.786;19.520;2023-08-01T17:14:01;159469.34;;;20.48
60936;BMP280;46804;51.786;19.520;2023-08-01T17:18:02;159426.75;;;20.32
60936;BMP280;46804;51.786;19.520;2023-08-01T17:22:03;159342.75;;;20.00
60936;BMP280;46804;51.786;19.520;2023-08-01T17:26:03;159322.06;;;19.92
60936;BMP280;46804;51.786;19.520;2023-08-01T17:30:04;159247.09;;;19.64
60936;BMP280;46804;51.786;19.520;2023-08-01T17:34:05;159203.22;;;19.47
60936;BMP280;46804;51.786;19.520;2023-08-01T17:38:06;159039.19;;;18.84
60936;BMP280;46804;51.786;19.520;2023-08-01T17:42:06;158970.78;;;18.58
60936;BMP280;46804;51.786;19.520;2023-08-01T17:46:07;158983.66;;;18.63
60936;BMP280;46804;51.786;19.520;2023-08-01T17:50:08;158850.78;;;18.12
60936;BMP280;46804;51.786;19.520;2023-08-01T17:54:08;158766.84;;;17.80
60936;BMP280;46804;51.786;19.520;2023-08-01T17:58:09;158599.22;;;17.16
60936;BMP280;46804;51.786;19.520;2023-08-01T18:02:10;158543.72;;;16.95
60936;BMP280;46804;51.786;19.520;2023-08-01T18:06:11;158474.13;;;16.68
60936;BMP280;46804;51.786;19.520;2023-08-01T18:10:12;158465.06;;;16.65
60936;BMP280;46804;51.786;19.520;2023-08-01T18:14:13;158447.03;;;16.58
60936;BMP280;46804;51.786;19.520;2023-08-01T18:18:13;158443.16;;;16.57
60936;BMP280;46804;51.786;19.520;2023-08-01T18:22:14;158434.16;;;16.53
60936;BMP280;46804;51.786;19.520;2023-08-01T18:26:16;158398.03;;;16.39
60936;BMP280;46804;51.786;19.520;2023-08-01T18:30:16;158422.56;;;16.49
60936;BMP280;46804;51.786;19.520;2023-08-01T18:34:17;158396.75;;;16.39
60936;BMP280;46804;51.786;19.520;2023-08-01T18:38:17;158418.69;;;16.47
60936;BMP280;46804;51.786;19.520;2023-08-01T18:42:18;158426.38;;;16.50
60936;BMP280;46804;51.786;19.520;2023-08-01T18:46:18;158443.16;;;16.57
60936;BMP280;46804;51.786;19.520;2023-08-01T18:50:19;158423.84;;;16.49
60936;BMP280;46804;51.786;19.520;2023-08-01T18:54:19;158452.19;;;16.60
60936;BMP280;46804;51.786;19.520;2023-08-01T18:58:20;158421.22;;;16.48
60936;BMP280;46804;51.786;19.520;2023-08-01T19:02:21;158409.63;;;16.44
60936;BMP280;46804;51.786;19.520;2023-08-01T19:09:43;158392.88;;;16.37
60936;BMP280;46804;51.786;19.520;2023-08-01T19:13:44;158399.34;;;16.40
60936;BMP280;46804;51.786;19.520;2023-08-01T19:17:44;158404.47;;;16.42
60936;BMP280;46804;51.786;19.520;2023-08-01T19:21:45;158410.97;;;16.44
60936;BMP280;46804;51.786;19.520;2023-08-01T19:25:46;158410.97;;;16.44
60936;BMP280;46804;51.786;19.520;2023-08-01T19:29:47;158407.06;;;16.43
60936;BMP280;46804;51.786;19.520;2023-08-01T19:33:47;158416.06;;;16.46
60936;BMP280;46804;51.786;19.520;2023-08-01T19:37:48;158419.94;;;16.48
60936;BMP280;46804;51.786;19.520;2023-08-01T19:41:49;158422.56;;;16.49
60936;BMP280;46804;51.786;19.520;2023-08-01T19:45:50;158432.81;;;16.53
60936;BMP280;46804;51.786;19.520;2023-08-01T19:49:50;158434.16;;;16.53
60936;BMP280;46804;51.786;19.520;2023-08-01T19:53:52;158439.31;;;16.55
60936;BMP280;46804;51.786;19.520;2023-08-01T19:57:52;158452.19;;;16.60
60936;BMP280;46804;51.786;19.520;2023-08-01T20:01:53;158468.94;;;16.66
60936;BMP280;46804;51.786;19.520;2023-08-01T20:05:57;158483.09;;;16.72
60936;BMP280;46804;51.786;19.520;2023-08-01T20:09:58;158471.50;;;16.67
60936;BMP280;46804;51.786;19.520;2023-08-01T20:13:58;158465.06;;;16.65
60936;BMP280;46804;51.786;19.520;2023-08-01T20:18:00;158465.06;;;16.65
60936;BMP280;46804;51.786;19.520;2023-08-01T20:22:00;158466.34;;;16.65
60936;BMP280;46804;51.786;19.520;2023-08-01T20:26:01;158458.63;;;16.63
60936;BMP280;46804;51.786;19.520;2023-08-01T20:30:02;158466.34;;;16.65
60936;BMP280;46804;51.786;19.520;2023-08-01T20:34:02;158475.38;;;16.69
60936;BMP280;46804;51.786;19.520;2023-08-01T20:38:04;158465.06;;;16.65
60936;BMP280;46804;51.786;19.520;2023-08-01T20:42:05;158463.78;;;16.65
60936;BMP280;46804;51.786;19.520;2023-08-01T20:46:06;158449.59;;;16.59
60936;BMP280;46804;51.786;19.520;2023-08-01T20:50:06;158443.16;;;16.57
60936;BMP280;46804;51.786;19.520;2023-08-01T20:54:07;158459.91;;;16.63
60936;BMP280;46804;51.786;19.520;2023-08-01T20:58:09;158454.75;;;16.61
60936;BMP280;46804;51.786;19.520;2023-08-01T21:02:10;158454.75;;;16.61
60936;BMP280;46804;51.786;19.520;2023-08-01T21:06:14;158457.34;;;16.62
60936;BMP280;46804;51.786;19.520;2023-08-01T21:10:15;158466.34;;;16.65
60936;BMP280;46804;51.786;19.520;2023-08-01T21:14:16;158474.13;;;16.68
60936;BMP280;46804;51.786;19.520;2023-08-01T21:18:17;158474.13;;;16.68
60936;BMP280;46804;51.786;19.520;2023-08-01T21:22:17;158476.66;;;16.69
60936;BMP280;46804;51.786;19.520;2023-08-01T21:26:18;158453.47;;;16.61
60936;BMP280;46804;51.786;19.520;2023-08-01T21:30:19;158457.34;;;16.62
60936;BMP280;46804;51.786;19.520;2023-08-01T21:34:20;158465.06;;;16.65
60936;BMP280;46804;51.786;19.520;2023-08-01T21:38:20;158449.59;;;16.59
60936;BMP280;46804;51.786;19.520;2023-08-01T21:42:21;158448.31;;;16.59
60936;BMP280;46804;51.786;19.520;2023-08-01T21:46:22;158434.16;;;16.53
60936;BMP280;46804;51.786;19.520;2023-08-01T21:50:22;158436.72;;;16.54
60936;BMP280;46804;51.786;19.520;2023-08-01T21:54:23;158436.72;;;16.54
60936;BMP280;46804;51.786;19.520;2023-08-01T21:58:23;158439.31;;;16.55
60936;BMP280;46804;51.786;19.520;2023-08-01T22:02:24;158432.81;;;16.53
60936;BMP280;46804;51.786;19.520;2023-08-01T22:06:25;158421.22;;;16.48
60936;BMP280;46804;51.786;19.520;2023-08-01T22:10:25;158425.13;;;16.50
60936;BMP280;46804;51.786;19.520;2023-08-01T22:14:27;158427.66;;;16.51
60936;BMP280;46804;51.786;19.520;2023-08-01T22:18:27;158423.84;;;16.49
60936;BMP280;46804;51.786;19.520;2023-08-01T22:22:28;158418.69;;;16.47
60936;BMP280;46804;51.786;19.520;2023-08-01T22:26:28;158413.50;;;16.45
60936;BMP280;46804;51.786;19.520;2023-08-01T22:30:29;158412.25;;;16.45
60936;BMP280;46804;51.786;19.520;2023-08-01T22:34:29;158405.81;;;16.42